Presidente Bernardes, Brazil
Current Conditions -  °F | °C
As of 6:00 AM on Monday 24 Nov 2014 (Local Time) from SBDN Reporting Station
Light Rain Light Rain  
Wind Chill: 72°   Ceiling: 1700
Heat Index: 72°   Visibility: 6mi
Dew Point: 70°   Wind: 8mph
Humidity: 94%   Direction: 110°ESE
Pressure: 29.88"   Gusts: NA
Location:  22.01°S, 51.55°W
Report Text: SBDN 240800Z 11007KT 9999 -RA BKN017 BKN025 BKN100 22/21 Q1012
Loading
Personal Weather Stations






























Interactive Weather Map New forecast layout! Learn more

10-Day Weather Forecast

Advertisements
Track Severe Weather on mobile